Terminal Aerodrome Forecast
Issued by NWS Sterling, VA

Current Version | Previous Version | Graphics & Text | Print | Product List | Glossary On
Versions: 1 2 3 4 5 6 7 8 9 10 11 12 13 14 15 16 17 18 19 20 21
000
FTUS41 KLWX 271737
TAFIAD
TAF
KIAD 271737Z 2718/2824 24005KT P6SM FEW040
     FM272200 18007KT P6SM VCTS SCT040CB
     FM280100 18006KT P6SM FEW040
     FM281000 19005KT 4SM BR SKC
     FM282000 18009KT P6SM SCT250=

USA.gov is the U.S. government's official web portal to all federal, state and local government web resources and services.